sensor_id;sensor_type;location;lat;lon;timestamp;pressure;altitude;pressure_sealevel;temperature;humidity
71107;BME280;58763;47.982;11.516;2023-03-01T00:01:52;94609.25;;;-0.14;78.11
71107;BME280;58763;47.982;11.516;2023-03-01T00:04:18;94605.34;;;-0.11;78.16
71107;BME280;58763;47.982;11.516;2023-03-01T00:06:44;94608.47;;;-0.14;77.77
71107;BME280;58763;47.982;11.516;2023-03-01T00:09:15;94603.09;;;-0.08;78.13
71107;BME280;58763;47.982;11.516;2023-03-01T00:11:42;94601.28;;;-0.07;77.86
71107;BME280;58763;47.982;11.516;2023-03-01T00:14:08;94601.88;;;-0.12;77.73
71107;BME280;58763;47.982;11.516;2023-03-01T00:16:37;94605.78;;;-0.21;77.87
71107;BME280;58763;47.982;11.516;2023-03-01T00:19:05;94602.56;;;-0.29;78.11
71107;BME280;58763;47.982;11.516;2023-03-01T00:21:31;94604.81;;;-0.39;78.37
71107;BME280;58763;47.982;11.516;2023-03-01T00:23:57;94602.56;;;-0.29;78.66
71107;BME280;58763;47.982;11.516;2023-03-01T00:26:24;94599.91;;;-0.29;78.40
71107;BME280;58763;47.982;11.516;2023-03-01T00:28:50;94600.91;;;-0.30;78.31
71107;BME280;58763;47.982;11.516;2023-03-01T00:31:20;94596.66;;;-0.31;78.65
71107;BME280;58763;47.982;11.516;2023-03-01T00:33:46;94590.66;;;-0.20;78.04
71107;BME280;58763;47.982;11.516;2023-03-01T00:36:14;94590.03;;;-0.16;77.98
71107;BME280;58763;47.982;11.516;2023-03-01T00:38:42;94585.97;;;-0.18;78.45
71107;BME280;58763;47.982;11.516;2023-03-01T00:41:11;94598.91;;;-0.28;78.63
71107;BME280;58763;47.982;11.516;2023-03-01T00:43:37;94591.53;;;-0.26;78.29
71107;BME280;58763;47.982;11.516;2023-03-01T00:46:09;94590.66;;;-0.20;78.19
71107;BME280;58763;47.982;11.516;2023-03-01T00:48:35;94587.38;;;-0.16;78.12
71107;BME280;58763;47.982;11.516;2023-03-01T00:51:21;94591.91;;;-0.23;78.48
71107;BME280;58763;47.982;11.516;2023-03-01T00:53:50;94592.13;;;-0.24;78.37
71107;BME280;58763;47.982;11.516;2023-03-01T00:56:16;94583.34;;;-0.31;78.39
71107;BME280;58763;47.982;11.516;2023-03-01T00:58:42;94587.44;;;-0.29;78.63
71107;BME280;58763;47.982;11.516;2023-03-01T01:01:14;94575.59;;;-0.39;78.83
71107;BME280;58763;47.982;11.516;2023-03-01T01:03:51;94574.59;;;-0.38;78.94
71107;BME280;58763;47.982;11.516;2023-03-01T01:06:32;94580.13;;;-0.40;79.10
71107;BME280;58763;47.982;11.516;2023-03-01T01:08:58;94570.75;;;-0.55;79.08
71107;BME280;58763;47.982;11.516;2023-03-01T01:11:26;94565.41;;;-0.42;79.22
71107;BME280;58763;47.982;11.516;2023-03-01T01:13:51;94553.34;;;-0.38;78.83
71107;BME280;58763;47.982;11.516;2023-03-01T01:16:19;94555.59;;;-0.35;78.50
71107;BME280;58763;47.982;11.516;2023-03-01T01:18:45;94562.34;;;-0.46;79.02
71107;BME280;58763;47.982;11.516;2023-03-01T01:21:14;94553.34;;;-0.38;79.10
71107;BME280;58763;47.982;11.516;2023-03-01T01:23:41;94543.38;;;-0.49;79.03
71107;BME280;58763;47.982;11.516;2023-03-01T01:26:12;94548.66;;;-0.43;78.91
71107;BME280;58763;47.982;11.516;2023-03-01T01:28:38;94538.25;;;-0.51;79.27
71107;BME280;58763;47.982;11.516;2023-03-01T01:31:04;94525.41;;;-0.54;79.27
71107;BME280;58763;47.982;11.516;2023-03-01T01:33:30;94537.66;;;-0.59;79.53
71107;BME280;58763;47.982;11.516;2023-03-01T01:35:57;94534.81;;;-0.51;79.62
71107;BME280;58763;47.982;11.516;2023-03-01T01:38:23;94531.09;;;-0.50;79.39
71107;BME280;58763;47.982;11.516;2023-03-01T01:40:50;94522.91;;;-0.49;79.16
71107;BME280;58763;47.982;11.516;2023-03-01T01:45:46;94523.31;;;-0.45;79.18
71107;BME280;58763;47.982;11.516;2023-03-01T01:48:14;94518.84;;;-0.45;79.26
71107;BME280;58763;47.982;11.516;2023-03-01T01:50:42;94520.03;;;-0.41;79.08
71107;BME280;58763;47.982;11.516;2023-03-01T01:53:17;94518.19;;;-0.40;79.23
71107;BME280;58763;47.982;11.516;2023-03-01T01:55:55;94515.53;;;-0.40;78.43
71107;BME280;58763;47.982;11.516;2023-03-01T01:58:24;94506.00;;;-0.54;79.07
71107;BME280;58763;47.982;11.516;2023-03-01T02:00:51;94508.03;;;-0.56;79.24
71107;BME280;58763;47.982;11.516;2023-03-01T02:03:24;94509.88;;;-0.57;79.57
71107;BME280;58763;47.982;11.516;2023-03-01T02:08:44;94497.97;;;-0.41;78.92
71107;BME280;58763;47.982;11.516;2023-03-01T02:11:12;94502.84;;;-0.38;78.53
71107;BME280;58763;47.982;11.516;2023-03-01T02:13:39;94504.47;;;-0.37;78.69
71107;BME280;58763;47.982;11.516;2023-03-01T02:16:09;94502.28;;;-0.47;78.40
71107;BME280;58763;47.982;11.516;2023-03-01T02:18:37;94504.13;;;-0.47;78.21
71107;BME280;58763;47.982;11.516;2023-03-01T02:24:21;94489.06;;;-0.66;79.37
71107;BME280;58763;47.982;11.516;2023-03-01T02:26:55;94498.09;;;-0.81;79.75
71107;BME280;58763;47.982;11.516;2023-03-01T02:29:25;94498.06;;;-0.61;79.33
71107;BME280;58763;47.982;11.516;2023-03-01T02:31:52;94497.88;;;-0.66;79.40
71107;BME280;58763;47.982;11.516;2023-03-01T02:34:24;94488.84;;;-0.65;80.19
71107;BME280;58763;47.982;11.516;2023-03-01T02:37:01;94488.06;;;-0.72;79.88
71107;BME280;58763;47.982;11.516;2023-03-01T02:39:38;94483.16;;;-0.68;79.91
71107;BME280;58763;47.982;11.516;2023-03-01T02:42:10;94492.75;;;-0.68;79.41
71107;BME280;58763;47.982;11.516;2023-03-01T02:44:39;94491.91;;;-0.61;79.45
71107;BME280;58763;47.982;11.516;2023-03-01T02:47:04;94495.59;;;-0.62;79.57
71107;BME280;58763;47.982;11.516;2023-03-01T02:49:33;94481.72;;;-0.64;78.97
71107;BME280;58763;47.982;11.516;2023-03-01T02:55:05;94486.81;;;-0.63;79.20
71107;BME280;58763;47.982;11.516;2023-03-01T02:57:34;94487.88;;;-0.71;79.61
71107;BME280;58763;47.982;11.516;2023-03-01T03:00:12;94490.88;;;-0.60;79.29
71107;BME280;58763;47.982;11.516;2023-03-01T03:02:45;94487.03;;;-0.64;79.09
71107;BME280;58763;47.982;11.516;2023-03-01T03:05:20;94489.47;;;-0.70;79.67
71107;BME280;58763;47.982;11.516;2023-03-01T03:07:47;94487.84;;;-0.64;79.31
71107;BME280;58763;47.982;11.516;2023-03-01T03:10:21;94494.53;;;-0.55;79.02
71107;BME280;58763;47.982;11.516;2023-03-01T03:12:52;94490.25;;;-0.49;78.67
71107;BME280;58763;47.982;11.516;2023-03-01T03:15:18;94482.09;;;-0.54;78.51
71107;BME280;58763;47.982;11.516;2023-03-01T03:17:45;94477.81;;;-0.62;79.10
71107;BME280;58763;47.982;11.516;2023-03-01T03:20:13;94474.81;;;-0.79;79.48
71107;BME280;58763;47.982;11.516;2023-03-01T03:22:48;94478.84;;;-0.70;79.15
71107;BME280;58763;47.982;11.516;2023-03-01T03:25:15;94475.59;;;-0.72;79.61
71107;BME280;58763;47.982;11.516;2023-03-01T03:27:42;94482.91;;;-0.54;79.06
71107;BME280;58763;47.982;11.516;2023-03-01T03:30:13;94473.53;;;-0.56;78.89
71107;BME280;58763;47.982;11.516;2023-03-01T03:32:39;94479.03;;;-0.51;78.64
71107;BME280;58763;47.982;11.516;2023-03-01T03:35:07;94481.50;;;-0.63;78.69
71107;BME280;58763;47.982;11.516;2023-03-01T03:37:41;94482.13;;;-0.68;79.01
71107;BME280;58763;47.982;11.516;2023-03-01T03:40:26;94471.94;;;-0.71;79.01
71107;BME280;58763;47.982;11.516;2023-03-01T03:42:51;94478.06;;;-0.77;79.28
71107;BME280;58763;47.982;11.516;2023-03-01T03:45:17;94475.59;;;-0.72;78.94
71107;BME280;58763;47.982;11.516;2023-03-01T03:47:43;94471.56;;;-0.81;79.02
71107;BME280;58763;47.982;11.516;2023-03-01T03:50:11;94467.41;;;-0.70;79.19
71107;BME280;58763;47.982;11.516;2023-03-01T03:52:37;94463.97;;;-0.71;78.95
71107;BME280;58763;47.982;11.516;2023-03-01T03:55:03;94465.59;;;-0.70;78.90
71107;BME280;58763;47.982;11.516;2023-03-01T03:57:29;94460.16;;;-0.94;79.47
71107;BME280;58763;47.982;11.516;2023-03-01T03:59:54;94459.75;;;-0.98;79.40
71107;BME280;58763;47.982;11.516;2023-03-01T04:02:20;94455.47;;;-0.99;79.35
71107;BME280;58763;47.982;11.516;2023-03-01T04:04:50;94452.41;;;-0.96;80.11
71107;BME280;58763;47.982;11.516;2023-03-01T04:07:18;94451.97;;;-0.93;79.83
71107;BME280;58763;47.982;11.516;2023-03-01T04:09:44;94451.34;;;-0.88;79.44
71107;BME280;58763;47.982;11.516;2023-03-01T04:12:10;94457.69;;;-0.83;79.22
71107;BME280;58763;47.982;11.516;2023-03-01T04:14:36;94450.31;;;-0.81;79.12
71107;BME280;58763;47.982;11.516;2023-03-01T04:17:02;94453.97;;;-0.82;78.84
71107;BME280;58763;47.982;11.516;2023-03-01T04:19:33;94450.13;;;-0.86;78.19
71107;BME280;58763;47.982;11.516;2023-03-01T04:22:02;94454.00;;;-0.88;78.83
71107;BME280;58763;47.982;11.516;2023-03-01T04:24:35;94443.25;;;-1.06;79.78
71107;BME280;58763;47.982;11.516;2023-03-01T04:27:01;94449.94;;;-0.91;78.95
71107;BME280;58763;47.982;11.516;2023-03-01T04:29:27;94450.16;;;-0.92;78.77
71107;BME280;58763;47.982;11.516;2023-03-01T04:31:53;94442.38;;;-0.87;78.75
71107;BME280;58763;47.982;11.516;2023-03-01T04:34:19;94444.97;;;-0.74;78.23
71107;BME280;58763;47.982;11.516;2023-03-01T04:36:45;94438.28;;;-0.83;78.85
71107;BME280;58763;47.982;11.516;2023-03-01T04:39:11;94442.94;;;-0.79;79.24
71107;BME280;58763;47.982;11.516;2023-03-01T04:41:39;94434.16;;;-0.73;78.44
71107;BME280;58763;47.982;11.516;2023-03-01T04:44:06;94435.44;;;-0.88;78.53
71107;BME280;58763;47.982;11.516;2023-03-01T04:46:32;94435.66;;;-0.90;78.70
71107;BME280;58763;47.982;11.516;2023-03-01T04:48:57;94443.22;;;-1.00;78.79
71107;BME280;58763;47.982;11.516;2023-03-01T04:51:23;94441.41;;;-1.06;79.15
71107;BME280;58763;47.982;11.516;2023-03-01T04:53:49;94443.66;;;-1.03;78.42
71107;BME280;58763;47.982;11.516;2023-03-01T04:56:15;94446.06;;;-0.95;78.35
71107;BME280;58763;47.982;11.516;2023-03-01T04:58:41;94443.03;;;-1.05;78.65
71107;BME280;58763;47.982;11.516;2023-03-01T05:01:13;94430.78;;;-0.99;78.35
71107;BME280;58763;47.982;11.516;2023-03-01T05:03:44;94443.66;;;-1.03;78.55
71107;BME280;58763;47.982;11.516;2023-03-01T05:06:10;94436.69;;;-0.97;78.44
71107;BME280;58763;47.982;11.516;2023-03-01T05:08:38;94437.72;;;-0.98;78.49
71107;BME280;58763;47.982;11.516;2023-03-01T05:11:04;94434.63;;;-0.95;78.29
71107;BME280;58763;47.982;11.516;2023-03-01T05:13:31;94425.84;;;-0.89;77.88
71107;BME280;58763;47.982;11.516;2023-03-01T05:15:58;94423.22;;;-0.96;77.52
71107;BME280;58763;47.982;11.516;2023-03-01T05:18:26;94429.72;;;-0.85;77.76
71107;BME280;58763;47.982;11.516;2023-03-01T05:20:55;94421.00;;;-1.05;77.91
71107;BME280;58763;47.982;11.516;2023-03-01T05:23:23;94433.22;;;-0.98;77.64
71107;BME280;58763;47.982;11.516;2023-03-01T05:25:49;94428.16;;;-1.12;78.04
71107;BME280;58763;47.982;11.516;2023-03-01T05:28:15;94419.41;;;-1.19;78.04
71107;BME280;58763;47.982;11.516;2023-03-01T05:30:41;94429.66;;;-1.36;78.04
71107;BME280;58763;47.982;11.516;2023-03-01T05:33:08;94430.84;;;-1.32;78.55
71107;BME280;58763;47.982;11.516;2023-03-01T05:35:42;94429.44;;;-1.34;78.10
71107;BME280;58763;47.982;11.516;2023-03-01T05:38:10;94428.84;;;-1.50;78.49
71107;BME280;58763;47.982;11.516;2023-03-01T05:40:40;94417.63;;;-1.45;78.39
71107;BME280;58763;47.982;11.516;2023-03-01T05:43:06;94419.47;;;-1.52;79.67
71107;BME280;58763;47.982;11.516;2023-03-01T05:45:32;94419.25;;;-1.44;79.04
71107;BME280;58763;47.982;11.516;2023-03-01T05:47:58;94419.84;;;-1.42;78.32
71107;BME280;58763;47.982;11.516;2023-03-01T05:50:26;94420.25;;;-1.52;78.68
71107;BME280;58763;47.982;11.516;2023-03-01T05:53:13;94414.97;;;-1.52;78.65
71107;BME280;58763;47.982;11.516;2023-03-01T05:55:40;94414.56;;;-1.49;79.14
71107;BME280;58763;47.982;11.516;2023-03-01T05:58:11;94413.75;;;-1.62;79.27
71107;BME280;58763;47.982;11.516;2023-03-01T06:00:38;94416.41;;;-1.56;79.15
71107;BME280;58763;47.982;11.516;2023-03-01T06:03:03;94418.25;;;-1.50;78.23
71107;BME280;58763;47.982;11.516;2023-03-01T06:05:30;94417.81;;;-1.47;78.78
71107;BME280;58763;47.982;11.516;2023-03-01T06:07:59;94430.06;;;-1.39;77.71
71107;BME280;58763;47.982;11.516;2023-03-01T06:10:25;94428.41;;;-1.47;78.01
71107;BME280;58763;47.982;11.516;2023-03-01T06:12:50;94427.19;;;-1.38;77.89
71107;BME280;58763;47.982;11.516;2023-03-01T06:15:16;94425.16;;;-1.35;78.28
71107;BME280;58763;47.982;11.516;2023-03-01T06:17:44;94423.13;;;-1.33;78.24
71107;BME280;58763;47.982;11.516;2023-03-01T06:20:16;94426.75;;;-1.28;78.30
71107;BME280;58763;47.982;11.516;2023-03-01T06:22:44;94430.44;;;-1.29;78.14
71107;BME280;58763;47.982;11.516;2023-03-01T06:25:11;94434.53;;;-1.26;78.21
71107;BME280;58763;47.982;11.516;2023-03-01T06:27:38;94433.94;;;-1.48;78.18
71107;BME280;58763;47.982;11.516;2023-03-01T06:30:04;94428.66;;;-1.68;78.14
71107;BME280;58763;47.982;11.516;2023-03-01T06:32:30;94430.06;;;-1.65;78.80
71107;BME280;58763;47.982;11.516;2023-03-01T06:34:56;94436.41;;;-1.73;79.13
71107;BME280;58763;47.982;11.516;2023-03-01T06:37:24;94431.50;;;-1.63;79.35
71107;BME280;58763;47.982;11.516;2023-03-01T06:39:49;94420.88;;;-1.56;78.80
71107;BME280;58763;47.982;11.516;2023-03-01T06:42:15;94427.63;;;-1.60;78.48
71107;BME280;58763;47.982;11.516;2023-03-01T06:44:41;94431.94;;;-1.66;78.98
71107;BME280;58763;47.982;11.516;2023-03-01T06:47:06;94437.44;;;-1.74;79.28
71107;BME280;58763;47.982;11.516;2023-03-01T06:49:32;94429.25;;;-1.72;79.02
71107;BME280;58763;47.982;11.516;2023-03-01T06:51:57;94436.22;;;-1.71;79.02
71107;BME280;58763;47.982;11.516;2023-03-01T06:54:23;94437.81;;;-1.70;79.25
71107;BME280;58763;47.982;11.516;2023-03-01T06:56:49;94437.03;;;-1.71;79.07
71107;BME280;58763;47.982;11.516;2023-03-01T06:59:16;94430.88;;;-1.58;79.15
71107;BME280;58763;47.982;11.516;2023-03-01T07:01:41;94427.03;;;-1.62;79.69
71107;BME280;58763;47.982;11.516;2023-03-01T07:04:07;94431.50;;;-1.63;79.03
71107;BME280;58763;47.982;11.516;2023-03-01T07:06:33;94444.38;;;-1.66;79.35
71107;BME280;58763;47.982;11.516;2023-03-01T07:08:59;94436.81;;;-1.63;79.31
71107;BME280;58763;47.982;11.516;2023-03-01T07:11:24;94442.72;;;-1.61;78.95
71107;BME280;58763;47.982;11.516;2023-03-01T07:13:50;94432.53;;;-1.57;78.56
71107;BME280;58763;47.982;11.516;2023-03-01T07:16:15;94436.59;;;-1.68;79.17
71107;BME280;58763;47.982;11.516;2023-03-01T07:18:41;94431.72;;;-1.58;78.98
71107;BME280;58763;47.982;11.516;2023-03-01T07:21:08;94432.13;;;-1.67;79.18
71107;BME280;58763;47.982;11.516;2023-03-01T07:23:36;94430.50;;;-1.81;79.45
71107;BME280;58763;47.982;11.516;2023-03-01T07:26:02;94433.34;;;-1.89;80.14
71107;BME280;58763;47.982;11.516;2023-03-01T07:28:28;94438.44;;;-1.88;79.74
71107;BME280;58763;47.982;11.516;2023-03-01T07:30:54;94439.88;;;-1.85;80.09
71107;BME280;58763;47.982;11.516;2023-03-01T07:33:20;94436.00;;;-1.83;80.13
71107;BME280;58763;47.982;11.516;2023-03-01T07:35:46;94434.34;;;-1.77;79.90
71107;BME280;58763;47.982;11.516;2023-03-01T07:38:11;94427.84;;;-1.75;79.64
71107;BME280;58763;47.982;11.516;2023-03-01T07:40:37;94427.66;;;-1.73;79.49
71107;BME280;58763;47.982;11.516;2023-03-01T07:43:02;94426.84;;;-1.87;79.77
71107;BME280;58763;47.982;11.516;2023-03-01T07:45:28;94429.28;;;-1.79;79.80
71107;BME280;58763;47.982;11.516;2023-03-01T07:47:55;94428.25;;;-1.84;80.08
71107;BME280;58763;47.982;11.516;2023-03-01T07:50:21;94416.63;;;-1.70;79.44
71107;BME280;58763;47.982;11.516;2023-03-01T07:52:48;94422.75;;;-1.70;79.57
71107;BME280;58763;47.982;11.516;2023-03-01T07:55:15;94421.91;;;-1.70;79.88
71107;BME280;58763;47.982;11.516;2023-03-01T07:57:40;94414.78;;;-1.70;79.88
71107;BME280;58763;47.982;11.516;2023-03-01T08:00:07;94420.69;;;-1.68;79.86
71107;BME280;58763;47.982;11.516;2023-03-01T08:02:33;94420.31;;;-1.71;79.59
71107;BME280;58763;47.982;11.516;2023-03-01T08:04:58;94415.41;;;-1.61;79.65
71107;BME280;58763;47.982;11.516;2023-03-01T08:07:24;94414.78;;;-1.57;79.46
71107;BME280;58763;47.982;11.516;2023-03-01T08:09:50;94413.38;;;-1.66;79.73
71107;BME280;58763;47.982;11.516;2023-03-01T08:12:15;94415.41;;;-1.61;79.87
71107;BME280;58763;47.982;11.516;2023-03-01T08:14:44;94412.53;;;-1.53;79.59
71107;BME280;58763;47.982;11.516;2023-03-01T08:17:09;94416.81;;;-1.59;80.30
71107;BME280;58763;47.982;11.516;2023-03-01T08:19:35;94414.97;;;-1.45;79.62
71107;BME280;58763;47.982;11.516;2023-03-01T08:22:03;94409.84;;;-1.27;79.42
71107;BME280;58763;47.982;11.516;2023-03-01T08:24:29;94405.34;;;-1.26;78.54
71107;BME280;58763;47.982;11.516;2023-03-01T08:26:54;94418.56;;;-1.13;77.85
71107;BME280;58763;47.982;11.516;2023-03-01T08:29:21;94417.34;;;-1.11;78.36
71107;BME280;58763;47.982;11.516;2023-03-01T08:31:47;94415.88;;;-1.00;78.36
71107;BME280;58763;47.982;11.516;2023-03-01T08:34:14;94403.38;;;-0.87;77.82
71107;BME280;58763;47.982;11.516;2023-03-01T08:36:42;94402.16;;;-0.84;77.76
71107;BME280;58763;47.982;11.516;2023-03-01T08:39:10;94395.75;;;-0.77;77.72
71107;BME280;58763;47.982;11.516;2023-03-01T08:41:36;94394.38;;;-0.86;77.84
71107;BME280;58763;47.982;11.516;2023-03-01T08:44:03;94394.72;;;-0.69;77.44
71107;BME280;58763;47.982;11.516;2023-03-01T08:46:33;94390.31;;;-0.88;77.99
71107;BME280;58763;47.982;11.516;2023-03-01T08:48:59;94396.81;;;-0.78;77.37
71107;BME280;58763;47.982;11.516;2023-03-01T08:51:26;94405.75;;;-0.72;77.08
71107;BME280;58763;47.982;11.516;2023-03-01T08:53:52;94390.22;;;-0.68;77.15
71107;BME280;58763;47.982;11.516;2023-03-01T08:56:18;94388.75;;;-0.64;77.20
71107;BME280;58763;47.982;11.516;2023-03-01T08:58:48;94383.41;;;-0.51;77.68
71107;BME280;58763;47.982;11.516;2023-03-01T09:01:15;94383.78;;;-0.48;77.29
71107;BME280;58763;47.982;11.516;2023-03-01T09:03:42;94388.69;;;-0.45;76.10
71107;BME280;58763;47.982;11.516;2023-03-01T09:06:08;94387.03;;;-0.46;76.13
71107;BME280;58763;47.982;11.516;2023-03-01T09:08:35;94382.31;;;-0.44;76.02
71107;BME280;58763;47.982;11.516;2023-03-01T09:11:05;94384.78;;;-0.42;76.02
71107;BME280;58763;47.982;11.516;2023-03-01T09:13:31;94380.56;;;-0.63;76.77
71107;BME280;58763;47.982;11.516;2023-03-01T09:15:58;94375.44;;;-0.51;76.47
71107;BME280;58763;47.982;11.516;2023-03-01T09:18:24;94378.25;;;-0.46;76.04
71107;BME280;58763;47.982;11.516;2023-03-01T09:20:49;94371.38;;;-0.60;76.73
71107;BME280;58763;47.982;11.516;2023-03-01T09:23:15;94366.06;;;-0.54;76.79
71107;BME280;58763;47.982;11.516;2023-03-01T09:25:40;94375.16;;;-0.43;76.70
71107;BME280;58763;47.982;11.516;2023-03-01T09:28:06;94361.84;;;-0.37;75.89
71107;BME280;58763;47.982;11.516;2023-03-01T09:30:31;94366.97;;;-0.42;75.78
71107;BME280;58763;47.982;11.516;2023-03-01T09:32:57;94364.31;;;-0.35;76.48
71107;BME280;58763;47.982;11.516;2023-03-01T09:35:23;94358.94;;;-0.29;75.90
71107;BME280;58763;47.982;11.516;2023-03-01T09:37:49;94357.75;;;-0.08;76.11
71107;BME280;58763;47.982;11.516;2023-03-01T09:40:26;94350.88;;;0.09;75.53
71107;BME280;58763;47.982;11.516;2023-03-01T09:43:05;94357.44;;;0.07;74.23
71107;BME280;58763;47.982;11.516;2023-03-01T09:45:35;94357.66;;;-0.20;75.69
71107;BME280;58763;47.982;11.516;2023-03-01T09:48:04;94361.56;;;0.03;75.25
71107;BME280;58763;47.982;11.516;2023-03-01T09:50:40;94362.81;;;0.00;74.60
71107;BME280;58763;47.982;11.516;2023-03-01T09:53:14;94367.69;;;0.03;74.82
71107;BME280;58763;47.982;11.516;2023-03-01T09:55:46;94362.00;;;-0.01;74.43
71107;BME280;58763;47.982;11.516;2023-03-01T09:58:37;94364.72;;;-0.07;74.39
71107;BME280;58763;47.982;11.516;2023-03-01T10:09:42;94357.06;;;0.03;75.24
71107;BME280;58763;47.982;11.516;2023-03-01T10:12:10;94354.72;;;-0.12;73.65
71107;BME280;58763;47.982;11.516;2023-03-01T10:17:33;94368.38;;;-0.33;75.66
71107;BME280;58763;47.982;11.516;2023-03-01T10:22:40;94356.22;;;-0.53;75.76
71107;BME280;58763;47.982;11.516;2023-03-01T10:25:13;94350.72;;;-0.52;75.62
71107;BME280;58763;47.982;11.516;2023-03-01T10:27:51;94355.81;;;-0.50;75.86
71107;BME280;58763;47.982;11.516;2023-03-01T10:32:59;94358.72;;;-0.58;76.05
71107;BME280;58763;47.982;11.516;2023-03-01T10:35:27;94352.78;;;-0.60;76.20
71107;BME280;58763;47.982;11.516;2023-03-01T10:38:06;94350.25;;;-0.42;76.27
71107;BME280;58763;47.982;11.516;2023-03-01T10:40:34;94351.81;;;-0.35;76.56
71107;BME280;58763;47.982;11.516;2023-03-01T10:43:04;94351.63;;;-0.33;76.76
71107;BME280;58763;47.982;11.516;2023-03-01T10:45:35;94343.13;;;-0.17;75.68
71107;BME280;58763;47.982;11.516;2023-03-01T10:48:18;94343.59;;;-0.02;75.68
71107;BME280;58763;47.982;11.516;2023-03-01T10:51:06;94338.03;;;0.06;75.53
71107;BME280;58763;47.982;11.516;2023-03-01T10:53:42;94339.53;;;0.20;76.03
71107;BME280;58763;47.982;11.516;2023-03-01T10:56:11;94334.97;;;0.27;74.75
71107;BME280;58763;47.982;11.516;2023-03-01T10:59:02;94325.25;;;0.39;74.31
71107;BME280;58763;47.982;11.516;2023-03-01T11:01:37;94323.59;;;0.38;74.19
71107;BME280;58763;47.982;11.516;2023-03-01T11:06:39;94300.81;;;0.24;73.80
71107;BME280;58763;47.982;11.516;2023-03-01T11:09:22;94303.78;;;0.16;74.35
71107;BME280;58763;47.982;11.516;2023-03-01T11:11:59;94293.75;;;0.18;74.25
71107;BME280;58763;47.982;11.516;2023-03-01T11:14:28;94296.25;;;0.31;73.94
71107;BME280;58763;47.982;11.516;2023-03-01T11:17:05;94289.84;;;0.39;74.15
71107;BME280;58763;47.982;11.516;2023-03-01T11:19:32;94294.00;;;0.35;74.09
71107;BME280;58763;47.982;11.516;2023-03-01T11:24:44;94283.19;;;0.30;74.19
71107;BME280;58763;47.982;11.516;2023-03-01T11:27:20;94285.53;;;0.38;73.67
71107;BME280;58763;47.982;11.516;2023-03-01T11:30:00;94276.03;;;0.48;74.11
71107;BME280;58763;47.982;11.516;2023-03-01T11:32:32;94274.84;;;0.44;74.17
71107;BME280;58763;47.982;11.516;2023-03-01T11:35:22;94277.66;;;0.49;72.68
71107;BME280;58763;47.982;11.516;2023-03-01T11:40:32;94265.22;;;0.61;72.45
71107;BME280;58763;47.982;11.516;2023-03-01T11:50:52;94259.56;;;0.58;72.30
71107;BME280;58763;47.982;11.516;2023-03-01T12:01:55;94264.56;;;0.48;73.88
71107;BME280;58763;47.982;11.516;2023-03-01T12:07:03;94253.13;;;0.47;73.14
71107;BME280;58763;47.982;11.516;2023-03-01T12:14:54;94234.91;;;0.81;72.57
71107;BME280;58763;47.982;11.516;2023-03-01T12:17:50;94244.66;;;0.87;71.78
71107;BME280;58763;47.982;11.516;2023-03-01T12:20:32;94236.81;;;0.92;71.69
71107;BME280;58763;47.982;11.516;2023-03-01T12:45:54;94232.56;;;1.32;70.88
71107;BME280;58763;47.982;11.516;2023-03-01T12:51:07;94230.34;;;1.29;71.36
71107;BME280;58763;47.982;11.516;2023-03-01T12:53:40;94229.88;;;1.32;71.78
71107;BME280;58763;47.982;11.516;2023-03-01T12:56:09;94231.31;;;1.46;70.62
71107;BME280;58763;47.982;11.516;2023-03-01T13:01:42;94213.97;;;1.78;69.78
71107;BME280;58763;47.982;11.516;2023-03-01T13:06:58;94201.59;;;2.07;69.46
71107;BME280;58763;47.982;11.516;2023-03-01T13:13:00;94206.38;;;2.56;68.22
71107;BME280;58763;47.982;11.516;2023-03-01T13:15:32;94211.41;;;2.81;67.53
71107;BME280;58763;47.982;11.516;2023-03-01T13:23:13;94209.78;;;2.92;66.80
71107;BME280;58763;47.982;11.516;2023-03-01T13:28:54;94208.69;;;2.93;66.76
71107;BME280;58763;47.982;11.516;2023-03-01T13:33:55;94199.31;;;3.18;67.14
71107;BME280;58763;47.982;11.516;2023-03-01T13:38:58;94196.78;;;3.57;64.87
71107;BME280;58763;47.982;11.516;2023-03-01T13:44:21;94193.94;;;3.80;64.50
71107;BME280;58763;47.982;11.516;2023-03-01T13:46:51;94189.53;;;4.07;64.42
71107;BME280;58763;47.982;11.516;2023-03-01T13:49:21;94184.56;;;4.15;63.44
71107;BME280;58763;47.982;11.516;2023-03-01T13:51:48;94177.28;;;4.11;62.61
71107;BME280;58763;47.982;11.516;2023-03-01T13:54:16;94181.22;;;4.03;63.44
71107;BME280;58763;47.982;11.516;2023-03-01T13:56:44;94183.16;;;4.08;63.53
71107;BME280;58763;47.982;11.516;2023-03-01T13:59:15;94184.44;;;4.05;63.09
71107;BME280;58763;47.982;11.516;2023-03-01T14:01:41;94176.44;;;4.27;63.04
71107;BME280;58763;47.982;11.516;2023-03-01T14:04:25;94175.63;;;4.43;62.23
71107;BME280;58763;47.982;11.516;2023-03-01T14:06:52;94175.44;;;4.50;61.99
71107;BME280;58763;47.982;11.516;2023-03-01T14:09:35;94176.34;;;4.60;62.03
71107;BME280;58763;47.982;11.516;2023-03-01T14:14:58;94161.53;;;4.74;61.55
71107;BME280;58763;47.982;11.516;2023-03-01T14:17:33;94149.72;;;4.97;60.39
71107;BME280;58763;47.982;11.516;2023-03-01T14:20:25;94127.03;;;5.05;60.53
71107;BME280;58763;47.982;11.516;2023-03-01T14:22:54;94124.97;;;5.12;60.51
71107;BME280;58763;47.982;11.516;2023-03-01T14:25:31;94128.78;;;5.16;60.25
71107;BME280;58763;47.982;11.516;2023-03-01T14:30:49;94128.03;;;5.20;60.24
71107;BME280;58763;47.982;11.516;2023-03-01T14:33:26;94133.94;;;5.22;60.54
71107;BME280;58763;47.982;11.516;2023-03-01T14:35:57;94141.75;;;5.29;60.14
71107;BME280;58763;47.982;11.516;2023-03-01T14:38:51;94150.34;;;5.31;60.36
71107;BME280;58763;47.982;11.516;2023-03-01T14:41:21;94138.22;;;5.23;60.94
71107;BME280;58763;47.982;11.516;2023-03-01T14:44:11;94135.47;;;5.18;61.02
71107;BME280;58763;47.982;11.516;2023-03-01T14:46:40;94131.47;;;5.21;61.14
71107;BME280;58763;47.982;11.516;2023-03-01T14:49:11;94140.06;;;5.18;61.34
71107;BME280;58763;47.982;11.516;2023-03-01T14:51:40;94137.25;;;5.08;61.51
71107;BME280;58763;47.982;11.516;2023-03-01T14:54:23;94139.75;;;4.93;61.11
71107;BME280;58763;47.982;11.516;2023-03-01T14:56:51;94146.63;;;4.83;62.15
71107;BME280;58763;47.982;11.516;2023-03-01T14:59:24;94144.72;;;4.36;63.08
71107;BME280;58763;47.982;11.516;2023-03-01T15:01:51;94135.13;;;4.40;63.23